Time;durP1;ratioP1;P1;durP2;ratioP2;P2;SDS_P1;SDS_P2;PMS_P1;PMS_P2;Temp;Humidity;BMP_temperature;BMP_pressure;BME280_temperature;BME280_humidity;BME280_pressure;Samples;Min_cycle;Max_cycle;Signal;HPM_P1;HPM_P2
2022/03/25 00:00:01;;;;;;;16.65;8.75;;;;;;;;;;4978771;28;20066;-74
2022/03/25 00:02:45;;;;;;;14.45;8.27;;;;;;;;;;4978183;28;20055;-74
2022/03/25 00:05:14;;;;;;;14.40;8.15;;;;;;;;;;4978387;28;20046;-74
2022/03/25 00:07:42;;;;;;;15.13;9.25;;;;;;;;;;4978013;28;20043;-75
2022/03/25 00:10:14;;;;;;;16.30;9.15;;;;;;;;;;4978283;28;20043;-74
2022/03/25 00:12:42;;;;;;;16.17;7.80;;;;;;;;;;4978077;28;20038;-75
2022/03/25 00:15:11;;;;;;;22.30;10.27;;;;;;;;;;4977955;28;20038;-75
2022/03/25 00:17:41;;;;;;;19.88;9.25;;;;;;;;;;4977889;28;20046;-75
2022/03/25 00:20:11;;;;;;;15.48;8.35;;;;;;;;;;4978363;28;20408;-75
2022/03/25 00:22:39;;;;;;;14.95;8.90;;;;;;;;;;4977710;28;20073;-74
2022/03/25 00:25:13;;;;;;;15.52;8.52;;;;;;;;;;4978106;28;20437;-75
2022/03/25 00:27:43;;;;;;;18.98;9.45;;;;;;;;;;4960714;28;20117;-75
2022/03/25 00:30:15;;;;;;;14.32;8.05;;;;;;;;;;4977658;28;20047;-75
2022/03/25 00:32:55;;;;;;;14.73;8.07;;;;;;;;;;4977679;28;20049;-74
2022/03/25 00:35:22;;;;;;;19.00;8.18;;;;;;;;;;4978142;28;20413;-74
2022/03/25 00:41:07;;;;;;;16.45;8.73;;;;;;;;;;4977968;28;20050;-74
2022/03/25 00:44:00;;;;;;;15.30;8.82;;;;;;;;;;4959604;28;20043;-74
2022/03/25 00:46:28;;;;;;;22.77;8.88;;;;;;;;;;4960084;28;20505;-74
2022/03/25 00:49:14;;;;;;;19.65;9.07;;;;;;;;;;4977465;28;20043;-74
2022/03/25 00:51:42;;;;;;;18.80;8.80;;;;;;;;;;4960215;28;20539;-74
2022/03/25 00:54:13;;;;;;;16.45;8.30;;;;;;;;;;4959800;28;20042;-75
2022/03/25 00:56:41;;;;;;;12.18;7.40;;;;;;;;;;4977519;28;20414;-75
2022/03/25 00:59:16;;;;;;;13.57;7.97;;;;;;;;;;4977705;28;20405;-74
2022/03/25 01:02:08;;;;;;;12.48;7.10;;;;;;;;;;4959807;28;20453;-75
2022/03/25 01:04:38;;;;;;;11.43;6.63;;;;;;;;;;4976195;28;20057;-75
2022/03/25 01:07:08;;;;;;;16.63;7.72;;;;;;;;;;4959940;28;20047;-75
2022/03/25 01:09:36;;;;;;;11.85;6.75;;;;;;;;;;4976955;28;20089;-75
2022/03/25 01:12:08;;;;;;;16.33;6.75;;;;;;;;;;4959690;28;20476;-75
2022/03/25 01:14:40;;;;;;;16.98;7.80;;;;;;;;;;4959601;28;20054;-74
2022/03/25 01:17:08;;;;;;;13.60;7.20;;;;;;;;;;4977130;28;20449;-75
2022/03/25 01:19:38;;;;;;;15.57;7.75;;;;;;;;;;4977110;28;20449;-74
2022/03/25 01:22:10;;;;;;;11.63;6.38;;;;;;;;;;4976927;28;20035;-75
2022/03/25 01:24:39;;;;;;;15.75;7.85;;;;;;;;;;4976797;28;20042;-75
2022/03/25 01:27:12;;;;;;;13.00;7.30;;;;;;;;;;4976813;28;20143;-75
2022/03/25 01:29:40;;;;;;;10.63;7.13;;;;;;;;;;4976687;28;20046;-75
2022/03/25 01:32:10;;;;;;;14.40;6.60;;;;;;;;;;4959504;28;20141;-75
2022/03/25 01:34:40;;;;;;;16.00;7.78;;;;;;;;;;4959224;28;20075;-74
2022/03/25 01:37:11;;;;;;;19.23;7.45;;;;;;;;;;4976619;28;20121;-75
2022/03/25 01:39:41;;;;;;;12.65;7.57;;;;;;;;;;4976732;28;20035;-75
2022/03/25 01:42:13;;;;;;;17.30;8.10;;;;;;;;;;4959155;28;20051;-75
2022/03/25 01:44:46;;;;;;;15.52;7.70;;;;;;;;;;4959093;28;20577;-75
2022/03/25 01:47:16;;;;;;;15.05;7.80;;;;;;;;;;4959038;28;20390;-75
2022/03/25 01:49:46;;;;;;;15.20;7.18;;;;;;;;;;4959121;28;20042;-75
2022/03/25 01:52:16;;;;;;;14.82;8.43;;;;;;;;;;4958996;28;20055;-75
2022/03/25 01:54:44;;;;;;;16.65;7.95;;;;;;;;;;4958946;28;20134;-74
2022/03/25 01:57:12;;;;;;;12.55;7.60;;;;;;;;;;4957448;28;20069;-75
2022/03/25 01:59:40;;;;;;;16.00;8.10;;;;;;;;;;4958840;28;20051;-74
2022/03/25 02:02:09;;;;;;;14.60;7.78;;;;;;;;;;4975877;28;20113;-75
2022/03/25 02:04:41;;;;;;;17.05;8.88;;;;;;;;;;4976283;28;20039;-74
2022/03/25 02:07:10;;;;;;;15.15;8.73;;;;;;;;;;4976223;28;20058;-74
2022/03/25 02:09:38;;;;;;;16.90;8.98;;;;;;;;;;4958553;28;20130;-74
2022/03/25 02:12:15;;;;;;;14.20;8.05;;;;;;;;;;4958573;28;20498;-75
2022/03/25 02:14:48;;;;;;;13.60;7.88;;;;;;;;;;4958480;28;20509;-74
2022/03/25 02:17:16;;;;;;;15.93;8.55;;;;;;;;;;4958308;28;20047;-75
2022/03/25 02:19:48;;;;;;;16.50;8.05;;;;;;;;;;4958408;28;20039;-74
2022/03/25 02:22:22;;;;;;;23.38;9.93;;;;;;;;;;4958541;28;20038;-74
2022/03/25 02:24:51;;;;;;;15.57;8.88;;;;;;;;;;4958381;28;20043;-74
2022/03/25 02:27:24;;;;;;;21.58;8.77;;;;;;;;;;4958097;28;20101;-74
2022/03/25 02:29:58;;;;;;;17.23;9.02;;;;;;;;;;4958295;28;20047;-74
2022/03/25 02:32:25;;;;;;;19.58;8.68;;;;;;;;;;4957982;28;20129;-74
2022/03/25 02:34:58;;;;;;;16.35;9.18;;;;;;;;;;4958367;28;20390;-74
2022/03/25 02:37:26;;;;;;;19.58;8.98;;;;;;;;;;4958964;28;20039;-74
2022/03/25 02:39:58;;;;;;;19.23;9.15;;;;;;;;;;4957883;28;20057;-74
2022/03/25 02:42:25;;;;;;;17.30;9.38;;;;;;;;;;4957737;28;20101;-74
2022/03/25 02:44:59;;;;;;;19.77;8.75;;;;;;;;;;4975647;28;20402;-74
2022/03/25 02:47:27;;;;;;;17.45;9.20;;;;;;;;;;4957739;28;20581;-74
2022/03/25 02:49:57;;;;;;;17.83;8.32;;;;;;;;;;4958084;28;20043;-74
2022/03/25 02:52:29;;;;;;;16.50;8.98;;;;;;;;;;4975486;28;20110;-73
2022/03/25 02:55:04;;;;;;;19.83;9.57;;;;;;;;;;4975338;28;20398;-74
2022/03/25 02:57:32;;;;;;;17.70;9.45;;;;;;;;;;4974987;28;20065;-74
2022/03/25 03:00:10;;;;;;;19.83;8.88;;;;;;;;;;4975006;28;20043;-74
2022/03/25 03:02:52;;;;;;;18.55;8.95;;;;;;;;;;4975003;28;20498;-74
2022/03/25 03:05:20;;;;;;;15.05;8.77;;;;;;;;;;4975160;28;20038;-73
2022/03/25 03:07:48;;;;;;;15.32;8.57;;;;;;;;;;4974518;28;20047;-75
2022/03/25 03:10:35;;;;;;;21.67;9.80;;;;;;;;;;4974381;28;20039;-74
2022/03/25 03:13:02;;;;;;;18.10;8.30;;;;;;;;;;4975110;28;20034;-74
2022/03/25 03:15:55;;;;;;;16.85;8.98;;;;;;;;;;4974359;28;20053;-74
2022/03/25 03:18:24;;;;;;;13.52;8.45;;;;;;;;;;4974757;28;20486;-74
2022/03/25 03:21:17;;;;;;;17.38;8.10;;;;;;;;;;4974715;28;20042;-74
2022/03/25 03:23:52;;;;;;;20.20;8.30;;;;;;;;;;4974594;28;20054;-74
2022/03/25 03:26:20;;;;;;;19.75;8.55;;;;;;;;;;4974159;28;20043;-73
2022/03/25 03:28:53;;;;;;;16.20;7.50;;;;;;;;;;4975031;28;20047;-73
2022/03/25 03:31:25;;;;;;;17.17;8.48;;;;;;;;;;4974623;28;20071;-73
2022/03/25 03:33:52;;;;;;;21.02;9.05;;;;;;;;;;4974728;28;20049;-73
2022/03/25 03:36:26;;;;;;;18.17;9.25;;;;;;;;;;4974638;28;20046;-73
2022/03/25 03:38:59;;;;;;;18.05;8.32;;;;;;;;;;4974402;28;20070;-73
2022/03/25 03:41:32;;;;;;;17.05;9.23;;;;;;;;;;4974432;28;20493;-74
2022/03/25 03:44:00;;;;;;;17.27;7.88;;;;;;;;;;4974509;28;20066;-73
2022/03/25 03:46:30;;;;;;;18.45;8.23;;;;;;;;;;4974720;28;20121;-73
2022/03/25 03:49:02;;;;;;;19.08;9.05;;;;;;;;;;4974508;28;20093;-73
2022/03/25 03:51:31;;;;;;;17.08;8.55;;;;;;;;;;4974613;28;20043;-73
2022/03/25 03:54:00;;;;;;;24.42;9.75;;;;;;;;;;4974267;28;20375;-73
2022/03/25 03:56:31;;;;;;;21.23;9.90;;;;;;;;;;4974501;28;20069;-73
2022/03/25 03:58:59;;;;;;;20.05;9.02;;;;;;;;;;4974196;28;20155;-73
2022/03/25 04:01:33;;;;;;;22.45;10.73;;;;;;;;;;4974557;28;20512;-73
2022/03/25 04:04:02;;;;;;;23.27;10.23;;;;;;;;;;4974351;28;20054;-73
2022/03/25 04:06:32;;;;;;;18.52;8.80;;;;;;;;;;4974516;28;20050;-73
2022/03/25 04:12:18;;;;;;;17.08;9.20;;;;;;;;;;4949027;29;20425;-73
2022/03/25 04:14:48;;;;;;;19.10;9.75;;;;;;;;;;4955086;29;20047;-74
2022/03/25 04:17:19;;;;;;;19.67;10.48;;;;;;;;;;4954937;29;20047;-74
2022/03/25 04:19:48;;;;;;;25.73;10.45;;;;;;;;;;4954945;29;20126;-74
2022/03/25 04:22:16;;;;;;;25.17;12.00;;;;;;;;;;4954845;29;20047;-74
2022/03/25 04:24:44;;;;;;;25.00;12.13;;;;;;;;;;4954173;29;20043;-74
2022/03/25 04:27:18;;;;;;;22.20;11.32;;;;;;;;;;4954357;29;20102;-73
2022/03/25 04:29:51;;;;;;;30.60;12.25;;;;;;;;;;4955154;29;20067;-73
2022/03/25 04:32:30;;;;;;;37.28;14.50;;;;;;;;;;4954997;29;20063;-73
2022/03/25 04:34:57;;;;;;;30.27;13.85;;;;;;;;;;4954812;29;20051;-73
2022/03/25 04:37:25;;;;;;;33.03;14.10;;;;;;;;;;4955176;28;20454;-73
2022/03/25 04:40:17;;;;;;;30.75;12.48;;;;;;;;;;4958690;29;20047;-73
2022/03/25 04:46:15;;;;;;;33.25;12.05;;;;;;;;;;4899713;29;20048;-74
2022/03/25 04:48:44;;;;;;;29.00;13.55;;;;;;;;;;4901159;29;20432;-74
2022/03/25 04:51:12;;;;;;;23.15;12.85;;;;;;;;;;4900917;29;20044;-74
2022/03/25 04:53:42;;;;;;;25.92;13.15;;;;;;;;;;4900158;29;20075;-74
2022/03/25 04:56:11;;;;;;;25.38;14.65;;;;;;;;;;4900930;29;20045;-73
2022/03/25 05:01:59;;;;;;;37.60;19.23;;;;;;;;;;4956440;28;20055;-74
2022/03/25 05:04:28;;;;;;;95.38;38.72;;;;;;;;;;4958127;29;20051;-74
2022/03/25 05:06:56;;;;;;;89.03;36.50;;;;;;;;;;4955948;29;20537;-73
2022/03/25 05:09:24;;;;;;;100.45;40.40;;;;;;;;;;4958106;29;20046;-73
2022/03/25 05:11:53;;;;;;;71.25;29.48;;;;;;;;;;4957685;29;20401;-73
2022/03/25 05:14:21;;;;;;;62.03;28.23;;;;;;;;;;4957212;28;20122;-74
2022/03/25 05:16:52;;;;;;;45.58;20.13;;;;;;;;;;4957884;29;20043;-73
2022/03/25 05:19:28;;;;;;;33.75;15.35;;;;;;;;;;4957743;29;20049;-73
2022/03/25 05:21:57;;;;;;;27.90;12.32;;;;;;;;;;4957844;29;20121;-74
2022/03/25 05:24:26;;;;;;;28.95;12.88;;;;;;;;;;4957130;29;20036;-74
2022/03/25 05:26:54;;;;;;;46.03;20.23;;;;;;;;;;4957049;29;20051;-74
2022/03/25 05:29:27;;;;;;;53.25;25.83;;;;;;;;;;4956418;29;20459;-74
2022/03/25 05:31:55;;;;;;;58.38;27.20;;;;;;;;;;4956263;28;20122;-75
2022/03/25 05:34:23;;;;;;;32.80;15.73;;;;;;;;;;4957044;29;20039;-74
2022/03/25 05:36:50;;;;;;;49.80;26.00;;;;;;;;;;4956676;28;20059;-74
2022/03/25 05:39:26;;;;;;;44.90;27.73;;;;;;;;;;4957286;29;20553;-74
2022/03/25 05:41:53;;;;;;;39.50;25.10;;;;;;;;;;4957216;29;20050;-74
2022/03/25 05:44:24;;;;;;;44.25;25.45;;;;;;;;;;4957076;29;20035;-75
2022/03/25 05:47:22;;;;;;;38.65;24.77;;;;;;;;;;4957543;29;20492;-74
2022/03/25 05:49:58;;;;;;;44.58;24.75;;;;;;;;;;4956758;28;20050;-75
2022/03/25 05:52:25;;;;;;;44.03;27.33;;;;;;;;;;4953944;29;20142;-74
2022/03/25 05:54:55;;;;;;;49.45;26.45;;;;;;;;;;4956396;29;20043;-75
2022/03/25 05:57:24;;;;;;;50.28;29.08;;;;;;;;;;4955875;29;20494;-75
2022/03/25 05:59:52;;;;;;;70.13;35.60;;;;;;;;;;4960713;28;20480;-74
2022/03/25 06:02:26;;;;;;;82.68;43.42;;;;;;;;;;4996289;28;20097;-74
2022/03/25 06:04:55;;;;;;;81.88;44.60;;;;;;;;;;4995845;28;20042;-75
2022/03/25 06:07:24;;;;;;;83.30;44.05;;;;;;;;;;4995571;28;20084;-75
2022/03/25 06:09:54;;;;;;;87.10;46.03;;;;;;;;;;4995375;28;20077;-75
2022/03/25 06:12:26;;;;;;;76.50;42.35;;;;;;;;;;4995381;28;20043;-75
2022/03/25 06:14:53;;;;;;;80.03;37.90;;;;;;;;;;4995312;28;20405;-75
2022/03/25 06:17:26;;;;;;;79.47;40.55;;;;;;;;;;4995046;28;20061;-74
2022/03/25 06:20:03;;;;;;;45.65;22.83;;;;;;;;;;4995524;28;20050;-75
2022/03/25 06:22:35;;;;;;;48.72;23.75;;;;;;;;;;4995167;28;20065;-75
2022/03/25 06:25:11;;;;;;;43.38;21.92;;;;;;;;;;4994950;28;20100;-75
2022/03/25 06:28:00;;;;;;;30.95;19.23;;;;;;;;;;4995196;28;20072;-75
2022/03/25 06:30:35;;;;;;;37.13;20.52;;;;;;;;;;4978326;28;20046;-75
2022/03/25 06:33:06;;;;;;;34.25;18.52;;;;;;;;;;4995065;28;20042;-75
2022/03/25 06:35:39;;;;;;;23.10;13.57;;;;;;;;;;5031816;22;20428;-75
2022/03/25 06:38:07;;;;;;;24.08;15.18;;;;;;;;;;4975656;28;20106;-75
2022/03/25 06:40:35;;;;;;;23.80;13.30;;;;;;;;;;4975549;28;20117;-76
2022/03/25 06:43:02;;;;;;;18.85;12.73;;;;;;;;;;4975314;28;20481;-76
2022/03/25 06:45:30;;;;;;;18.85;11.35;;;;;;;;;;4958074;28;20042;-76
2022/03/25 06:47:58;;;;;;;21.73;11.13;;;;;;;;;;4975413;28;20461;-76
2022/03/25 06:50:25;;;;;;;17.52;10.65;;;;;;;;;;4975165;28;20378;-75
2022/03/25 06:52:54;;;;;;;18.05;9.75;;;;;;;;;;4975169;28;20089;-75
2022/03/25 06:55:21;;;;;;;13.68;9.75;;;;;;;;;;4957706;28;20130;-76
2022/03/25 06:57:49;;;;;;;18.65;11.73;;;;;;;;;;4975572;28;20109;-76
2022/03/25 07:00:18;;;;;;;17.70;10.63;;;;;;;;;;4974855;28;20044;-76
2022/03/25 07:02:46;;;;;;;16.40;9.85;;;;;;;;;;4974377;28;20097;-76
2022/03/25 07:05:15;;;;;;;12.30;9.48;;;;;;;;;;4974985;28;20050;-76
2022/03/25 07:07:43;;;;;;;19.27;11.93;;;;;;;;;;4975306;28;20043;-76
2022/03/25 07:10:12;;;;;;;14.93;10.40;;;;;;;;;;4975007;28;20126;-76
2022/03/25 07:12:40;;;;;;;13.13;10.05;;;;;;;;;;4975226;28;20066;-76
2022/03/25 07:15:08;;;;;;;14.63;9.35;;;;;;;;;;4975097;28;20397;-76
2022/03/25 07:17:37;;;;;;;17.83;10.55;;;;;;;;;;4974832;28;20573;-76
2022/03/25 07:20:06;;;;;;;17.15;10.23;;;;;;;;;;4975323;28;20054;-77
2022/03/25 07:22:34;;;;;;;25.98;12.85;;;;;;;;;;4974715;28;20441;-76
2022/03/25 07:25:01;;;;;;;17.88;11.02;;;;;;;;;;4974791;28;20394;-77
2022/03/25 07:27:29;;;;;;;15.90;10.48;;;;;;;;;;4974978;28;20077;-78
2022/03/25 07:29:56;;;;;;;16.20;9.38;;;;;;;;;;4974525;28;20061;-78
2022/03/25 07:32:24;;;;;;;13.55;8.77;;;;;;;;;;4974614;28;20477;-77
2022/03/25 07:34:52;;;;;;;12.63;8.90;;;;;;;;;;4974745;28;20099;-78
2022/03/25 07:37:19;;;;;;;18.63;10.80;;;;;;;;;;4974135;28;20078;-78
2022/03/25 07:39:47;;;;;;;11.52;8.68;;;;;;;;;;4974566;28;20039;-76
2022/03/25 07:42:19;;;;;;;13.38;8.57;;;;;;;;;;4974653;28;20553;-76
2022/03/25 07:44:47;;;;;;;12.20;7.80;;;;;;;;;;4974334;28;20078;-75
2022/03/25 07:47:15;;;;;;;10.77;8.13;;;;;;;;;;4974322;28;20098;-75
2022/03/25 07:49:43;;;;;;;16.75;8.35;;;;;;;;;;4974538;28;20046;-77
2022/03/25 07:52:11;;;;;;;13.80;7.60;;;;;;;;;;4974076;28;20050;-74
2022/03/25 07:54:39;;;;;;;11.48;7.22;;;;;;;;;;4974587;28;20068;-74
2022/03/25 07:57:06;;;;;;;11.27;7.53;;;;;;;;;;4974381;28;20434;-74
2022/03/25 07:59:34;;;;;;;19.42;8.65;;;;;;;;;;4973942;28;20489;-75
2022/03/25 08:02:02;;;;;;;12.35;7.80;;;;;;;;;;4974160;28;20130;-75
2022/03/25 08:05:13;;;;;;;15.10;7.70;;;;;;;;;;5041878;23;20016;-69
2022/03/25 08:07:53;;;;;;;14.40;7.80;;;;;;;;;;4976752;28;20053;-69
2022/03/25 08:10:30;;;;;;;16.88;7.90;;;;;;;;;;4993585;28;20569;-69
2022/03/25 08:12:59;;;;;;;12.00;7.53;;;;;;;;;;4995342;28;20042;-69
2022/03/25 08:15:30;;;;;;;14.40;7.43;;;;;;;;;;4997583;28;20050;-69
2022/03/25 08:18:00;;;;;;;13.93;8.02;;;;;;;;;;4997801;28;20049;-68
2022/03/25 08:20:29;;;;;;;12.85;8.15;;;;;;;;;;4998012;28;20396;-69
2022/03/25 08:22:57;;;;;;;16.50;7.82;;;;;;;;;;4997085;28;20602;-69
2022/03/25 08:28:12;;;;;;;14.05;8.60;;;;;;;;;;4979848;28;20548;-70
2022/03/25 08:30:40;;;;;;;17.88;10.05;;;;;;;;;;4997442;28;20052;-70
2022/03/25 08:33:08;;;;;;;14.65;9.15;;;;;;;;;;4997220;28;20500;-69
2022/03/25 08:35:37;;;;;;;10.25;7.18;;;;;;;;;;4997304;28;20053;-69
2022/03/25 08:38:05;;;;;;;11.35;6.93;;;;;;;;;;4979569;28;20061;-70
2022/03/25 08:40:34;;;;;;;14.80;7.57;;;;;;;;;;4979711;28;20043;-70
2022/03/25 08:43:17;;;;;;;11.93;6.60;;;;;;;;;;4997492;28;20130;-70
2022/03/25 08:45:45;;;;;;;10.63;6.68;;;;;;;;;;4997056;28;20049;-69
2022/03/25 08:48:12;;;;;;;11.52;7.05;;;;;;;;;;4996825;28;20065;-70
2022/03/25 08:50:40;;;;;;;10.52;6.85;;;;;;;;;;4996605;28;20049;-70
2022/03/25 08:53:07;;;;;;;14.90;6.78;;;;;;;;;;5067740;22;20122;-76
2022/03/25 08:55:35;;;;;;;10.35;6.20;;;;;;;;;;4977640;28;20042;-76
2022/03/25 08:58:03;;;;;;;11.27;7.50;;;;;;;;;;4977441;28;20039;-76
2022/03/25 09:00:30;;;;;;;11.15;7.22;;;;;;;;;;4977403;28;20042;-75
2022/03/25 09:02:58;;;;;;;18.83;8.00;;;;;;;;;;4977460;28;20046;-75
2022/03/25 09:05:26;;;;;;;11.27;7.25;;;;;;;;;;4977150;28;20053;-75
2022/03/25 09:07:54;;;;;;;10.50;7.03;;;;;;;;;;4959875;28;20035;-75
2022/03/25 09:10:21;;;;;;;12.20;6.97;;;;;;;;;;4977275;28;20047;-76
2022/03/25 09:12:49;;;;;;;11.10;7.60;;;;;;;;;;4976944;28;20117;-76
2022/03/25 09:15:17;;;;;;;10.57;7.25;;;;;;;;;;4976958;28;20039;-76
2022/03/25 09:17:45;;;;;;;11.75;6.70;;;;;;;;;;4977556;28;20078;-76
2022/03/25 09:20:13;;;;;;;11.73;7.18;;;;;;;;;;4976967;28;20043;-76
2022/03/25 09:22:41;;;;;;;10.95;6.93;;;;;;;;;;4977140;28;20039;-76
2022/03/25 09:25:09;;;;;;;10.27;6.95;;;;;;;;;;4976086;28;20054;-76
2022/03/25 09:27:38;;;;;;;12.05;7.75;;;;;;;;;;4976597;28;20039;-76
2022/03/25 09:30:06;;;;;;;14.23;7.90;;;;;;;;;;4976562;28;20051;-76
2022/03/25 09:32:54;;;;;;;10.65;6.68;;;;;;;;;;4977253;28;20070;-76
2022/03/25 09:35:22;;;;;;;16.83;7.70;;;;;;;;;;4959122;28;20445;-77
2022/03/25 09:37:51;;;;;;;9.90;7.25;;;;;;;;;;4976791;28;20126;-76
2022/03/25 09:40:27;;;;;;;13.38;7.40;;;;;;;;;;4976807;28;20049;-76
2022/03/25 09:42:55;;;;;;;10.82;7.38;;;;;;;;;;4976338;28;20035;-76
2022/03/25 09:45:23;;;;;;;10.93;6.90;;;;;;;;;;4976361;28;20042;-76
2022/03/25 09:47:51;;;;;;;11.10;7.13;;;;;;;;;;4976738;28;20034;-76
2022/03/25 09:50:21;;;;;;;16.13;8.25;;;;;;;;;;4978559;28;20042;-76
2022/03/25 09:52:49;;;;;;;10.05;7.10;;;;;;;;;;4980999;28;20050;-76
2022/03/25 09:55:37;;;;;;;16.17;7.70;;;;;;;;;;4976638;28;20046;-76
2022/03/25 09:58:05;;;;;;;11.70;7.35;;;;;;;;;;4976722;28;20043;-76
2022/03/25 10:00:33;;;;;;;14.23;7.80;;;;;;;;;;4976421;28;20042;-74
2022/03/25 10:03:00;;;;;;;11.98;7.45;;;;;;;;;;4976126;28;20046;-75
2022/03/25 10:05:30;;;;;;;11.32;7.20;;;;;;;;;;4976373;28;20131;-75
2022/03/25 10:07:59;;;;;;;12.38;7.05;;;;;;;;;;4976033;28;20058;-77
2022/03/25 10:10:27;;;;;;;10.18;6.68;;;;;;;;;;4976272;28;20042;-75
2022/03/25 10:13:02;;;;;;;14.70;6.70;;;;;;;;;;4958454;28;20099;-74
2022/03/25 10:15:32;;;;;;;12.38;7.50;;;;;;;;;;4975895;28;20056;-74
2022/03/25 10:18:09;;;;;;;12.63;6.70;;;;;;;;;;4975969;28;20117;-74
2022/03/25 10:20:39;;;;;;;13.45;7.43;;;;;;;;;;4976143;28;20043;-77
2022/03/25 10:23:09;;;;;;;14.50;8.52;;;;;;;;;;4976086;28;20050;-75
2022/03/25 10:25:47;;;;;;;13.80;7.25;;;;;;;;;;4976238;28;20039;-75
2022/03/25 10:28:27;;;;;;;10.23;7.65;;;;;;;;;;4976097;28;20046;-75
2022/03/25 10:30:57;;;;;;;14.07;7.35;;;;;;;;;;4975584;28;20055;-75
2022/03/25 10:33:42;;;;;;;11.43;6.63;;;;;;;;;;4975946;28;20062;-75
2022/03/25 10:36:11;;;;;;;9.93;7.20;;;;;;;;;;4975634;28;20043;-75
2022/03/25 10:41:49;;;;;;;11.32;7.13;;;;;;;;;;4968603;28;20086;-74
2022/03/25 10:44:32;;;;;;;17.35;7.75;;;;;;;;;;5020152;22;20095;-76
2022/03/25 10:47:00;;;;;;;11.95;7.35;;;;;;;;;;4958355;28;20048;-76
2022/03/25 10:49:38;;;;;;;11.27;6.32;;;;;;;;;;4958225;28;20101;-76
2022/03/25 10:52:20;;;;;;;12.52;7.10;;;;;;;;;;4975531;28;20511;-76
2022/03/25 10:55:14;;;;;;;11.70;6.95;;;;;;;;;;4975553;28;20058;-77
2022/03/25 10:57:50;;;;;;;13.60;6.72;;;;;;;;;;4975089;28;20057;-76
2022/03/25 11:00:19;;;;;;;12.88;6.90;;;;;;;;;;4958644;28;20452;-76
2022/03/25 11:02:47;;;;;;;13.27;6.57;;;;;;;;;;4975378;28;20433;-75
2022/03/25 11:05:15;;;;;;;12.10;7.05;;;;;;;;;;4975250;28;20081;-76
2022/03/25 11:07:44;;;;;;;10.90;7.00;;;;;;;;;;4975429;28;20445;-76
2022/03/25 11:10:17;;;;;;;16.63;7.20;;;;;;;;;;4974570;28;20425;-76
2022/03/25 11:12:46;;;;;;;12.95;7.03;;;;;;;;;;4974742;28;20042;-76
2022/03/25 11:15:15;;;;;;;12.27;6.97;;;;;;;;;;4974006;28;20047;-76
2022/03/25 11:17:46;;;;;;;13.63;7.78;;;;;;;;;;4974903;28;20046;-76
2022/03/25 11:20:26;;;;;;;9.95;6.53;;;;;;;;;;4974868;28;20098;-75
2022/03/25 11:23:17;;;;;;;12.52;7.90;;;;;;;;;;4974776;28;20130;-76
2022/03/25 11:25:47;;;;;;;12.57;8.60;;;;;;;;;;4975117;28;20049;-76
2022/03/25 11:28:32;;;;;;;12.60;8.00;;;;;;;;;;4957502;28;20417;-76
2022/03/25 11:31:05;;;;;;;15.45;7.03;;;;;;;;;;4974976;28;20110;-76
2022/03/25 11:33:55;;;;;;;11.82;7.10;;;;;;;;;;4974720;28;20046;-76
2022/03/25 11:36:45;;;;;;;13.48;7.43;;;;;;;;;;4975171;28;20059;-75
2022/03/25 11:39:21;;;;;;;12.75;7.25;;;;;;;;;;4974569;28;20101;-76
2022/03/25 11:41:49;;;;;;;31.88;8.27;;;;;;;;;;4973892;28;20042;-76
2022/03/25 11:44:18;;;;;;;13.88;7.47;;;;;;;;;;4974409;28;20097;-76
2022/03/25 11:47:11;;;;;;;13.38;7.50;;;;;;;;;;5043502;23;20128;-77
2022/03/25 11:49:39;;;;;;;14.77;7.43;;;;;;;;;;4955204;28;20089;-77
2022/03/25 11:52:25;;;;;;;13.30;7.45;;;;;;;;;;4955194;28;20044;-76
2022/03/25 11:54:58;;;;;;;12.77;7.55;;;;;;;;;;4955099;28;20472;-74
2022/03/25 11:57:27;;;;;;;11.43;7.70;;;;;;;;;;4954988;28;20103;-76
2022/03/25 11:59:56;;;;;;;15.00;8.10;;;;;;;;;;5026009;23;20063;-75
2022/03/25 12:05:34;;;;;;;14.45;7.43;;;;;;;;;;4930694;29;20055;-77
2022/03/25 12:08:20;;;;;;;11.82;6.65;;;;;;;;;;4935987;29;20079;-76
2022/03/25 12:10:49;;;;;;;11.90;6.90;;;;;;;;;;4935972;29;20044;-77
2022/03/25 12:13:17;;;;;;;12.40;7.55;;;;;;;;;;4935860;29;20406;-76
2022/03/25 12:15:49;;;;;;;12.27;7.47;;;;;;;;;;4935704;29;20127;-76
2022/03/25 12:18:35;;;;;;;12.32;7.35;;;;;;;;;;4935530;29;20553;-76
2022/03/25 12:21:03;;;;;;;10.30;6.50;;;;;;;;;;4935668;29;20082;-76
2022/03/25 12:23:30;;;;;;;9.85;6.97;;;;;;;;;;4935781;29;20046;-76
2022/03/25 12:25:58;;;;;;;11.55;7.00;;;;;;;;;;4918515;29;20075;-76
2022/03/25 12:28:49;;;;;;;16.52;7.43;;;;;;;;;;4992346;22;20110;-76
2022/03/25 12:31:19;;;;;;;13.25;7.20;;;;;;;;;;4935773;29;20059;-77
2022/03/25 12:33:53;;;;;;;11.13;7.18;;;;;;;;;;4935954;29;20043;-76
2022/03/25 12:36:22;;;;;;;13.10;6.47;;;;;;;;;;4935634;29;20405;-76
2022/03/25 12:38:50;;;;;;;11.20;6.45;;;;;;;;;;4934349;29;20047;-76
2022/03/25 12:41:27;;;;;;;11.20;7.32;;;;;;;;;;4934450;29;20457;-76
2022/03/25 12:44:15;;;;;;;10.85;6.82;;;;;;;;;;4935320;29;20048;-76
2022/03/25 12:46:43;;;;;;;15.93;6.70;;;;;;;;;;4935320;29;20040;-76
2022/03/25 12:49:10;;;;;;;18.13;6.85;;;;;;;;;;4935940;29;20074;-77
2022/03/25 12:51:38;;;;;;;13.00;6.70;;;;;;;;;;4935872;29;20139;-76
2022/03/25 12:54:16;;;;;;;11.77;7.05;;;;;;;;;;4935567;29;20047;-76
2022/03/25 12:56:53;;;;;;;13.52;6.55;;;;;;;;;;4935649;29;20040;-76
2022/03/25 12:59:41;;;;;;;17.27;6.95;;;;;;;;;;4936617;29;20394;-76
2022/03/25 13:02:15;;;;;;;15.75;7.75;;;;;;;;;;4938927;29;20059;-76
2022/03/25 13:04:45;;;;;;;12.98;6.40;;;;;;;;;;4939258;29;20036;-76
2022/03/25 13:07:14;;;;;;;11.07;6.28;;;;;;;;;;4938977;29;20066;-76
2022/03/25 13:10:11;;;;;;;14.15;6.80;;;;;;;;;;4938996;29;20048;-76
2022/03/25 13:12:42;;;;;;;12.35;6.38;;;;;;;;;;4934674;29;20407;-76
2022/03/25 13:15:11;;;;;;;11.30;6.60;;;;;;;;;;4938450;29;20438;-76
2022/03/25 13:17:40;;;;;;;9.65;6.05;;;;;;;;;;4938787;29;20119;-76
2022/03/25 13:20:18;;;;;;;10.02;6.57;;;;;;;;;;4938603;29;20052;-77
2022/03/25 13:23:03;;;;;;;14.70;6.32;;;;;;;;;;4938439;29;20050;-76
2022/03/25 13:25:38;;;;;;;12.00;6.32;;;;;;;;;;4938651;29;20491;-75
2022/03/25 13:28:07;;;;;;;12.45;6.38;;;;;;;;;;4938877;29;20075;-75
2022/03/25 13:30:42;;;;;;;12.02;6.53;;;;;;;;;;4966720;28;20155;-75
2022/03/25 13:33:14;;;;;;;9.40;5.90;;;;;;;;;;4943519;28;20047;-76
2022/03/25 13:35:46;;;;;;;11.40;6.13;;;;;;;;;;4989975;28;20038;-74
2022/03/25 13:38:16;;;;;;;13.80;6.55;;;;;;;;;;4995645;28;20104;-74
2022/03/25 13:40:47;;;;;;;12.18;6.10;;;;;;;;;;4995592;28;20050;-74
2022/03/25 13:43:23;;;;;;;9.57;6.32;;;;;;;;;;4996215;28;20459;-75
2022/03/25 13:46:03;;;;;;;8.90;5.82;;;;;;;;;;4996244;28;20429;-75
2022/03/25 13:48:47;;;;;;;13.10;5.97;;;;;;;;;;4995854;28;20042;-74
2022/03/25 13:51:24;;;;;;;15.50;8.00;;;;;;;;;;4993777;28;20061;-75
2022/03/25 13:54:10;;;;;;;11.18;6.05;;;;;;;;;;4963172;28;20047;-75
2022/03/25 13:56:39;;;;;;;12.50;6.60;;;;;;;;;;4957339;29;20433;-75
2022/03/25 13:59:07;;;;;;;10.40;6.00;;;;;;;;;;4940263;28;20054;-75
2022/03/25 14:01:37;;;;;;;14.95;7.22;;;;;;;;;;4956971;29;20086;-70
2022/03/25 14:04:11;;;;;;;11.65;6.47;;;;;;;;;;4957511;29;20043;-70
2022/03/25 14:06:46;;;;;;;23.73;6.32;;;;;;;;;;4956754;29;20446;-70
2022/03/25 14:09:32;;;;;;;9.13;5.78;;;;;;;;;;4956341;29;20430;-70
2022/03/25 14:12:14;;;;;;;11.52;6.50;;;;;;;;;;4956555;29;20074;-70
2022/03/25 14:15:06;;;;;;;14.63;6.80;;;;;;;;;;4956456;29;20087;-70
2022/03/25 14:17:34;;;;;;;10.30;5.97;;;;;;;;;;4956415;29;20047;-70
2022/03/25 14:20:17;;;;;;;11.90;6.07;;;;;;;;;;4956481;29;20047;-69
2022/03/25 14:22:49;;;;;;;12.18;5.72;;;;;;;;;;4962411;28;20073;-69
2022/03/25 14:25:17;;;;;;;12.15;6.00;;;;;;;;;;4974217;28;20046;-69
2022/03/25 14:27:45;;;;;;;14.60;6.47;;;;;;;;;;4965594;28;20049;-70
2022/03/25 14:30:15;;;;;;;11.50;7.50;;;;;;;;;;4975091;28;20117;-69
2022/03/25 14:32:43;;;;;;;13.95;7.03;;;;;;;;;;4975919;28;20486;-70
2022/03/25 14:35:10;;;;;;;19.90;10.07;;;;;;;;;;4975520;28;20049;-69
2022/03/25 14:37:39;;;;;;;36.67;10.25;;;;;;;;;;4975626;28;20129;-69
2022/03/25 14:40:07;;;;;;;37.78;17.73;;;;;;;;;;4975016;28;20058;-70
2022/03/25 14:43:00;;;;;;;30.50;12.13;;;;;;;;;;5025056;23;20343;-69
2022/03/25 14:46:01;;;;;;;62.35;34.25;;;;;;;;;;4974926;28;20060;-68
2022/03/25 14:48:55;;;;;;;40.45;17.42;;;;;;;;;;4973673;28;20043;-69
2022/03/25 14:51:23;;;;;;;38.70;17.05;;;;;;;;;;4975013;28;20066;-69
2022/03/25 14:53:54;;;;;;;52.58;16.45;;;;;;;;;;4975654;28;20035;-70
2022/03/25 14:56:22;;;;;;;61.65;26.33;;;;;;;;;;4975392;28;20379;-69
2022/03/25 14:58:51;;;;;;;21.52;11.35;;;;;;;;;;4974904;28;20053;-71
2022/03/25 15:04:39;;;;;;;21.92;10.48;;;;;;;;;;4974867;28;20093;-71
2022/03/25 15:07:32;;;;;;;24.20;10.73;;;;;;;;;;4974377;28;20043;-71
2022/03/25 15:10:25;;;;;;;18.40;10.85;;;;;;;;;;4957084;28;20043;-71
2022/03/25 15:13:17;;;;;;;19.77;12.38;;;;;;;;;;4955495;28;20039;-70
2022/03/25 15:16:09;;;;;;;19.85;10.30;;;;;;;;;;4955559;29;20308;-70
2022/03/25 15:18:42;;;;;;;26.13;12.27;;;;;;;;;;4955271;29;20039;-71
2022/03/25 15:21:12;;;;;;;16.38;8.70;;;;;;;;;;4961715;28;20060;-71